createdAt,value
2023-04-09T00:03:50.790Z,16.75
2023-04-09T00:09:11.603Z,16.92
2023-04-09T00:14:32.424Z,17.05
2023-04-09T00:19:53.104Z,17.38
2023-04-09T00:25:14.060Z,17.25
2023-04-09T00:30:35.027Z,15.95
2023-04-09T00:35:55.688Z,16.30
2023-04-09T00:41:18.328Z,15.93
2023-04-09T00:46:39.649Z,16.65
2023-04-09T00:52:01.313Z,15.15
2023-04-09T00:57:22.530Z,13.18
2023-04-09T01:02:43.962Z,15.65
2023-04-09T01:08:23.076Z,14.45
2023-04-09T01:14:23.172Z,13.95
2023-04-09T01:20:23.120Z,14.60
2023-04-09T01:26:04.856Z,14.73
2023-04-09T01:31:39.058Z,15.18
2023-04-09T01:37:03.530Z,14.88
2023-04-09T01:42:24.928Z,13.43
2023-04-09T01:47:46.793Z,14.57
2023-04-09T01:53:08.187Z,11.55
2023-04-09T01:58:29.501Z,13.55
2023-04-09T02:04:20.765Z,16.60
2023-04-09T02:15:04.215Z,15.05
2023-04-09T02:20:24.880Z,16.27
2023-04-09T02:25:46.022Z,15.68
2023-04-09T02:31:07.217Z,16.35
2023-04-09T02:36:28.288Z,15.35
2023-04-09T02:41:49.622Z,15.57
2023-04-09T02:47:10.355Z,15.48
2023-04-09T02:52:32.729Z,17.50
2023-04-09T02:57:53.406Z,16.85
2023-04-09T03:03:14.281Z,16.05
2023-04-09T03:08:35.643Z,16.42
2023-04-09T03:13:56.812Z,15.50
2023-04-09T03:19:17.757Z,16.27
2023-04-09T03:24:39.132Z,15.55
2023-04-09T03:30:00.793Z,16.25
2023-04-09T03:35:29.513Z,16.52
2023-04-09T03:40:53.074Z,17.27
2023-04-09T03:46:17.859Z,22.50
2023-04-09T03:51:41.631Z,16.00
2023-04-09T03:57:04.542Z,18.45
2023-04-09T04:02:27.350Z,17.27
2023-04-09T04:07:56.010Z,15.57
2023-04-09T04:13:21.454Z,15.15
2023-04-09T04:18:49.154Z,15.68
2023-04-09T04:24:11.665Z,17.02
2023-04-09T04:29:33.320Z,16.65
2023-04-09T04:34:55.772Z,15.38
2023-04-09T04:40:19.837Z,15.70
2023-04-09T04:45:44.080Z,16.90
2023-04-09T04:51:06.271Z,14.30
2023-04-09T04:56:34.594Z,13.93
2023-04-09T05:02:02.678Z,13.60
2023-04-09T05:07:27.294Z,14.18
2023-04-09T05:12:50.660Z,16.40
2023-04-09T05:18:29.068Z,17.00
2023-04-09T05:23:49.881Z,15.20
2023-04-09T05:29:10.500Z,14.68
2023-04-09T05:34:31.447Z,17.85
2023-04-09T05:39:52.194Z,16.20
2023-04-09T05:45:13.021Z,17.00
2023-04-09T05:50:53.866Z,15.27
2023-04-09T05:56:18.475Z,14.88
2023-04-09T06:01:45.480Z,15.77
2023-04-09T06:07:06.483Z,14.98
2023-04-09T06:12:27.141Z,14.75
2023-04-09T06:17:47.921Z,15.70
2023-04-09T06:23:08.609Z,15.38
2023-04-09T06:28:29.859Z,14.38
2023-04-09T06:33:50.889Z,14.25
2023-04-09T06:39:11.897Z,14.93
2023-04-09T06:44:34.252Z,14.75
2023-04-09T06:49:54.883Z,13.63
2023-04-09T06:55:15.633Z,16.48
2023-04-09T07:00:36.326Z,15.57
2023-04-09T07:05:57.839Z,15.25
2023-04-09T07:11:18.561Z,15.02
2023-04-09T07:16:39.677Z,16.73
2023-04-09T07:22:00.591Z,16.40
2023-04-09T07:27:25.886Z,16.08
2023-04-09T07:32:47.309Z,16.25
2023-04-09T07:38:08.098Z,18.58
2023-04-09T07:43:28.884Z,15.75
2023-04-09T07:48:50.393Z,16.02
2023-04-09T07:54:11.945Z,15.20
2023-04-09T07:59:35.122Z,15.73
2023-04-09T08:04:55.972Z,15.25
2023-04-09T08:10:16.989Z,14.07
2023-04-09T08:15:38.000Z,11.98
2023-04-09T08:20:58.589Z,15.65
2023-04-09T08:26:19.228Z,16.38
2023-04-09T08:31:39.980Z,16.00
2023-04-09T08:37:00.742Z,15.00
2023-04-09T08:42:24.100Z,14.45
2023-04-09T08:47:47.096Z,15.40
2023-04-09T08:53:09.659Z,16.27
2023-04-09T08:58:30.314Z,17.55
2023-04-09T09:04:01.424Z,14.68
2023-04-09T09:09:22.444Z,16.77
2023-04-09T09:14:43.256Z,16.30
2023-04-09T09:20:20.664Z,14.88
2023-04-09T09:25:42.407Z,12.90
2023-04-09T09:31:11.082Z,15.10
2023-04-09T09:36:33.936Z,15.00
2023-04-09T09:42:07.884Z,13.20
2023-04-09T09:47:29.887Z,14.13
2023-04-09T09:52:54.436Z,16.95
2023-04-09T09:58:24.980Z,14.05
2023-04-09T10:03:47.151Z,17.23
2023-04-09T10:09:08.092Z,16.50
2023-04-09T10:14:29.481Z,14.52
2023-04-09T10:20:16.496Z,13.60
2023-04-09T10:25:37.156Z,18.63
2023-04-09T10:30:59.265Z,14.32
2023-04-09T10:36:22.376Z,18.35
2023-04-09T10:41:44.880Z,19.38
2023-04-09T10:47:06.337Z,15.98
2023-04-09T10:52:30.577Z,16.70
2023-04-09T10:57:51.522Z,16.27
2023-04-09T11:03:32.506Z,14.30
2023-04-09T11:08:53.696Z,21.42
2023-04-09T11:14:20.458Z,16.13
2023-04-09T11:19:41.368Z,15.55
2023-04-09T11:25:03.069Z,14.48
2023-04-09T11:30:24.252Z,16.02
2023-04-09T11:35:45.325Z,16.15
2023-04-09T11:41:06.343Z,15.50
2023-04-09T11:46:27.614Z,15.88
2023-04-09T11:51:48.458Z,13.57
2023-04-09T11:57:09.237Z,16.55
2023-04-09T12:02:30.282Z,15.43
2023-04-09T12:13:16.801Z,15.30
2023-04-09T12:18:40.038Z,13.57
2023-04-09T12:24:01.277Z,13.25
2023-04-09T12:29:22.595Z,12.32
2023-04-09T12:34:43.871Z,12.48
2023-04-09T12:40:05.182Z,11.07
2023-04-09T12:45:26.415Z,12.68
2023-04-09T12:50:47.764Z,10.55
2023-04-09T12:56:08.969Z,12.32
2023-04-09T13:01:29.944Z,12.93
2023-04-09T13:06:50.548Z,12.52
2023-04-09T13:12:14.776Z,10.30
2023-04-09T13:17:35.810Z,11.15
2023-04-09T13:22:57.293Z,11.05
2023-04-09T13:28:17.990Z,10.95
2023-04-09T13:33:38.733Z,12.43
2023-04-09T13:39:04.566Z,11.13
2023-04-09T13:44:26.767Z,10.35
2023-04-09T13:49:47.672Z,13.68
2023-04-09T13:55:09.087Z,12.65
2023-04-09T14:00:31.786Z,13.35
2023-04-09T14:05:52.817Z,24.05
2023-04-09T14:11:18.210Z,10.40
2023-04-09T14:16:38.911Z,13.25
2023-04-09T14:21:59.573Z,12.20
2023-04-09T14:27:20.403Z,11.40
2023-04-09T14:32:41.183Z,12.70
2023-04-09T14:38:04.509Z,11.63
2023-04-09T14:43:25.647Z,12.07
2023-04-09T14:48:46.615Z,12.48
2023-04-09T14:54:07.454Z,11.77
2023-04-09T14:59:28.459Z,12.65
2023-04-09T15:04:49.395Z,11.95
2023-04-09T15:10:10.718Z,12.40
2023-04-09T15:15:32.294Z,11.38
2023-04-09T15:20:52.950Z,13.13
2023-04-09T15:26:13.680Z,13.70
2023-04-09T15:31:34.511Z,12.38
2023-04-09T15:36:55.099Z,11.38
2023-04-09T15:42:20.345Z,11.77
2023-04-09T15:47:41.144Z,13.57
2023-04-09T15:53:01.845Z,13.35
2023-04-09T15:58:22.648Z,13.95
2023-04-09T16:03:43.349Z,13.82
2023-04-09T16:09:04.157Z,12.40
2023-04-09T16:14:24.686Z,14.52
2023-04-09T16:19:45.403Z,14.10
2023-04-09T16:25:06.765Z,13.32
2023-04-09T16:30:27.579Z,14.13
2023-04-09T16:35:48.374Z,13.43
2023-04-09T16:41:09.353Z,12.60
2023-04-09T16:46:30.170Z,13.85
2023-04-09T16:51:53.136Z,14.05
2023-04-09T16:57:14.766Z,15.90
2023-04-09T17:02:36.784Z,16.50
2023-04-09T17:07:57.774Z,15.00
2023-04-09T17:13:18.398Z,15.07
2023-04-09T17:18:39.224Z,13.10
2023-04-09T17:24:01.960Z,13.27
2023-04-09T17:29:23.298Z,12.95
2023-04-09T17:34:47.465Z,11.75
2023-04-09T17:40:08.886Z,12.77
2023-04-09T17:45:29.981Z,12.13
2023-04-09T17:50:50.731Z,13.13
2023-04-09T17:56:18.089Z,12.73
2023-04-09T18:01:38.837Z,12.90
2023-04-09T18:06:59.548Z,15.13
2023-04-09T18:12:20.181Z,15.23
2023-04-09T18:17:42.245Z,14.57
2023-04-09T18:23:03.207Z,13.68
2023-04-09T18:28:23.957Z,12.88
2023-04-09T18:33:44.779Z,11.93
2023-04-09T18:39:05.618Z,11.60
2023-04-09T18:44:26.384Z,11.52
2023-04-09T18:49:47.494Z,11.23
2023-04-09T18:55:08.937Z,12.15
2023-04-09T19:00:30.095Z,12.55
2023-04-09T19:05:51.466Z,12.80
2023-04-09T19:11:14.395Z,12.70
2023-04-09T19:16:35.644Z,11.68
2023-04-09T19:21:56.305Z,10.60
2023-04-09T19:27:18.156Z,9.68
2023-04-09T19:32:39.197Z,9.90
2023-04-09T19:38:01.565Z,9.43
2023-04-09T19:43:23.782Z,11.68
2023-04-09T19:48:44.837Z,10.10
2023-04-09T19:54:05.806Z,9.80
2023-04-09T19:59:27.208Z,9.73
2023-04-09T20:04:47.932Z,9.32
2023-04-09T20:10:10.454Z,10.25
2023-04-09T20:15:31.536Z,8.73
2023-04-09T20:20:53.234Z,7.97
2023-04-09T20:26:14.036Z,8.60
2023-04-09T20:31:36.154Z,10.52
2023-04-09T20:36:57.689Z,8.02
2023-04-09T20:42:18.398Z,9.20
2023-04-09T20:47:39.192Z,10.20
2023-04-09T20:53:00.086Z,8.88
2023-04-09T20:58:21.312Z,7.63
2023-04-09T21:03:42.324Z,7.57
2023-04-09T21:09:03.184Z,6.85
2023-04-09T21:14:23.877Z,7.70
2023-04-09T21:19:44.635Z,9.18
2023-04-09T21:25:06.100Z,9.20
2023-04-09T21:30:27.811Z,9.65
2023-04-09T21:35:52.207Z,9.13
2023-04-09T21:41:13.116Z,13.30
2023-04-09T21:46:36.412Z,14.32
2023-04-09T21:51:59.274Z,13.43
2023-04-09T21:57:20.560Z,13.73
2023-04-09T22:02:42.012Z,14.43
2023-04-09T22:08:03.027Z,13.05
2023-04-09T22:13:23.831Z,12.63
2023-04-09T22:18:45.249Z,10.88
2023-04-09T22:24:06.505Z,12.40
2023-04-09T22:29:28.458Z,10.73
2023-04-09T22:34:49.212Z,9.50
2023-04-09T22:40:14.380Z,9.02
2023-04-09T22:45:34.928Z,8.10
2023-04-09T22:50:57.982Z,7.93
2023-04-09T22:56:19.723Z,6.70
2023-04-09T23:01:40.748Z,8.73
2023-04-09T23:07:02.363Z,7.80
2023-04-09T23:12:23.146Z,8.80
2023-04-09T23:17:44.020Z,7.47
2023-04-09T23:23:04.871Z,8.07
2023-04-09T23:28:25.943Z,7.57
2023-04-09T23:33:46.855Z,5.85
2023-04-09T23:39:07.421Z,6.65
2023-04-09T23:44:28.101Z,4.95
2023-04-09T23:49:48.776Z,4.38
2023-04-09T23:55:10.820Z,4.95
